RJOO/ITM METAR and TAF weather

Enter ICAO airport designator
Station Type Date Time Source
RJOO METAR 2019/05/27 09:00 UTC NOAA

RJOO 270900Z 24008KT 190V280 9999 FEW030 BKN/// 25/14 Q1012


Station Type Date Time Source
RJOO Decoded METAR 2019/05/27 09:00 UTC NOAA

Osaka International Airport, Japan (RJOO) 34-47N 135-27E 15M
May 27, 2019 - 05:00 AM EDT / 2019.05.27 0900 UTC
Wind: from the WSW (240 degrees) at 9 MPH (8 KT) (direction variable):0
Visibility: greater than 7 mile(s):0
Sky conditions: mostly cloudy
Temperature: 77 F (25 C)
Dew Point: 57 F (14 C)
Relative Humidity: 50%
Pressure (altimeter): 29.88 in. Hg (1012 hPa)
ob: RJOO 270900Z 24008KT 190V280 9999 FEW030 BKN/// 25/14 Q1012
cycle: 9

Station Type Date Time Source
RJOO TAF 2019/05/27 06:30 UTC NOAA

TAF RJOO 270511Z 2706/2812 24008KT 9999 FEW030
BECMG 2721/2800 21010KT
BECMG 2806/2809 35015KT
TEMPO 2806/2812 4000 SHRA BR FEW006 BKN008 BKN020

Example: see airport list